createdAt,value
2022-10-19T00:02:24.472Z,63.13
2022-10-19T00:04:52.175Z,63.35
2022-10-19T00:07:19.830Z,63.21
2022-10-19T00:09:49.348Z,63.17
2022-10-19T00:12:17.389Z,62.99
2022-10-19T00:14:46.236Z,62.93
2022-10-19T00:17:13.829Z,62.87
2022-10-19T00:19:41.586Z,62.83
2022-10-19T00:22:13.022Z,63.06
2022-10-19T00:24:41.937Z,63.07
2022-10-19T00:27:10.977Z,63.13
2022-10-19T00:29:39.429Z,63.28
2022-10-19T00:32:07.165Z,63.20
2022-10-19T00:34:34.836Z,62.91
2022-10-19T00:37:02.507Z,62.84
2022-10-19T00:39:30.170Z,62.63
2022-10-19T00:41:57.881Z,62.71
2022-10-19T00:45:02.875Z,62.74
2022-10-19T00:47:31.604Z,62.69
2022-10-19T00:50:00.475Z,62.86
2022-10-19T00:52:29.160Z,62.86
2022-10-19T00:54:59.156Z,62.95
2022-10-19T00:57:30.828Z,62.84
2022-10-19T00:59:59.946Z,62.88
2022-10-19T01:02:29.029Z,62.79
2022-10-19T01:04:57.173Z,62.77
2022-10-19T01:07:26.282Z,62.65
2022-10-19T01:09:54.451Z,62.96
2022-10-19T01:12:48.513Z,62.74
2022-10-19T01:15:28.410Z,62.84
2022-10-19T01:18:05.726Z,63.01
2022-10-19T01:21:16.032Z,62.77
2022-10-19T01:24:11.051Z,62.73
2022-10-19T01:27:06.409Z,62.67
2022-10-19T01:29:54.549Z,62.91
2022-10-19T01:32:27.647Z,62.86
2022-10-19T01:35:06.338Z,62.74
2022-10-19T01:37:41.839Z,62.73
2022-10-19T01:40:15.231Z,62.49
2022-10-19T01:42:47.825Z,62.81
2022-10-19T01:45:20.705Z,62.73
2022-10-19T01:47:54.217Z,62.43
2022-10-19T01:50:28.273Z,62.76
2022-10-19T01:52:57.054Z,62.25
2022-10-19T01:55:27.016Z,62.20
2022-10-19T01:58:02.554Z,61.90
2022-10-19T02:00:35.658Z,62.22
2022-10-19T02:03:06.417Z,62.16
2022-10-19T02:05:36.416Z,62.18
2022-10-19T02:08:07.563Z,62.63
2022-10-19T02:10:39.043Z,62.42
2022-10-19T02:13:08.886Z,61.92
2022-10-19T02:15:41.554Z,62.36
2022-10-19T02:18:11.627Z,62.72
2022-10-19T02:20:39.481Z,62.40
2022-10-19T02:23:07.950Z,62.41
2022-10-19T02:25:36.556Z,61.98
2022-10-19T02:28:05.623Z,62.07
2022-10-19T02:30:33.385Z,62.07
2022-10-19T02:33:02.463Z,62.40
2022-10-19T02:35:30.384Z,62.05
2022-10-19T02:38:02.265Z,62.04
2022-10-19T02:40:33.527Z,62.28
2022-10-19T02:43:06.660Z,62.44
2022-10-19T02:45:39.895Z,62.17
2022-10-19T02:48:12.304Z,62.04
2022-10-19T02:50:44.750Z,61.71
2022-10-19T02:53:12.488Z,62.37
2022-10-19T02:58:13.138Z,61.81
2022-10-19T03:00:40.847Z,61.80
2022-10-19T03:03:10.615Z,61.80
2022-10-19T03:05:38.418Z,61.70
2022-10-19T03:08:06.386Z,61.75
2022-10-19T03:10:34.065Z,61.78
2022-10-19T03:13:01.794Z,62.17
2022-10-19T03:15:29.959Z,62.09
2022-10-19T03:17:57.706Z,62.27
2022-10-19T03:20:26.716Z,61.88
2022-10-19T03:22:54.359Z,61.99
2022-10-19T03:25:22.101Z,61.79
2022-10-19T03:27:49.754Z,61.85
2022-10-19T03:30:17.463Z,61.84
2022-10-19T03:32:45.217Z,62.25
2022-10-19T03:35:12.907Z,61.76
2022-10-19T03:37:41.946Z,61.90
2022-10-19T03:40:10.667Z,62.16
2022-10-19T03:42:38.338Z,61.84
2022-10-19T03:45:06.834Z,61.92
2022-10-19T03:47:34.666Z,62.18
2022-10-19T03:50:02.531Z,62.00
2022-10-19T03:52:30.193Z,61.78
2022-10-19T03:54:59.197Z,61.88
2022-10-19T03:57:26.834Z,62.11
2022-10-19T03:59:54.532Z,61.85
2022-10-19T04:02:22.179Z,62.25
2022-10-19T04:04:49.858Z,62.02
2022-10-19T04:07:17.484Z,61.83
2022-10-19T04:09:45.617Z,62.21
2022-10-19T04:12:14.601Z,62.01
2022-10-19T04:14:56.343Z,61.99
2022-10-19T04:17:25.591Z,62.19
2022-10-19T04:19:53.247Z,61.98
2022-10-19T04:22:20.899Z,62.24
2022-10-19T04:24:48.582Z,62.16
2022-10-19T04:27:17.715Z,62.44
2022-10-19T04:29:45.458Z,61.93
2022-10-19T04:32:13.104Z,62.05
2022-10-19T04:34:41.125Z,62.10
2022-10-19T04:37:08.773Z,62.40
2022-10-19T04:39:39.510Z,62.31
2022-10-19T04:42:07.203Z,62.34
2022-10-19T04:44:36.224Z,62.30
2022-10-19T04:47:03.940Z,62.58
2022-10-19T04:49:31.600Z,62.14
2022-10-19T04:51:59.258Z,62.27
2022-10-19T04:54:26.992Z,62.13
2022-10-19T04:56:54.779Z,62.24
2022-10-19T04:59:22.425Z,62.70
2022-10-19T05:01:51.401Z,62.12
2022-10-19T05:04:19.072Z,62.05
2022-10-19T05:06:46.698Z,62.45
2022-10-19T05:09:14.578Z,62.42
2022-10-19T05:11:42.243Z,62.04
2022-10-19T05:14:09.953Z,62.09
2022-10-19T05:16:37.707Z,61.92
2022-10-19T05:19:06.706Z,62.44
2022-10-19T05:21:34.500Z,62.07
2022-10-19T05:24:02.207Z,62.05
2022-10-19T05:26:30.222Z,62.23
2022-10-19T05:29:01.632Z,62.19
2022-10-19T05:31:32.000Z,61.84
2022-10-19T05:34:00.608Z,62.05
2022-10-19T05:36:34.447Z,61.78
2022-10-19T05:39:04.896Z,61.86
2022-10-19T05:41:32.572Z,62.18
2022-10-19T05:44:01.545Z,62.15
2022-10-19T05:46:30.639Z,61.97
2022-10-19T05:48:59.093Z,61.78
2022-10-19T05:51:29.161Z,62.15
2022-10-19T05:53:57.688Z,62.26
2022-10-19T05:56:27.470Z,61.93
2022-10-19T05:58:56.711Z,61.99
2022-10-19T06:01:24.776Z,61.78
2022-10-19T06:03:54.031Z,61.96
2022-10-19T06:06:22.255Z,61.89
2022-10-19T06:08:53.425Z,61.90
2022-10-19T06:11:22.848Z,62.06
2022-10-19T06:13:52.066Z,62.23
2022-10-19T06:16:20.633Z,62.15
2022-10-19T06:18:48.339Z,61.76
2022-10-19T06:21:17.615Z,62.14
2022-10-19T06:23:45.368Z,62.40
2022-10-19T06:26:15.580Z,61.91
2022-10-19T06:28:45.001Z,62.09
2022-10-19T06:31:13.580Z,61.87
2022-10-19T06:33:43.170Z,61.83
2022-10-19T06:36:13.777Z,61.86
2022-10-19T06:38:41.911Z,62.29
2022-10-19T06:41:10.800Z,61.97
2022-10-19T06:43:40.326Z,62.23
2022-10-19T06:46:09.227Z,61.95
2022-10-19T06:48:36.926Z,62.21
2022-10-19T06:51:07.677Z,62.32
2022-10-19T06:53:35.701Z,62.51
2022-10-19T06:56:05.774Z,62.43
2022-10-19T06:58:36.536Z,62.32
2022-10-19T07:01:08.487Z,62.22
2022-10-19T07:03:36.841Z,62.34
2022-10-19T07:06:06.387Z,62.46
2022-10-19T07:08:35.067Z,62.50
2022-10-19T07:11:04.438Z,62.24
2022-10-19T07:13:32.466Z,62.74
2022-10-19T07:16:02.684Z,62.43
2022-10-19T07:18:31.844Z,62.55
2022-10-19T07:21:00.975Z,62.56
2022-10-19T07:23:31.196Z,62.34
2022-10-19T07:26:01.803Z,62.45
2022-10-19T07:28:30.791Z,62.53
2022-10-19T07:30:58.530Z,62.63
2022-10-19T07:33:26.284Z,62.93
2022-10-19T07:36:01.693Z,62.45
2022-10-19T07:38:30.016Z,62.96
2022-10-19T07:41:02.245Z,63.01
2022-10-19T07:43:29.904Z,62.74
2022-10-19T07:46:02.555Z,62.86
2022-10-19T07:48:30.747Z,62.58
2022-10-19T07:50:58.593Z,62.83
2022-10-19T07:53:27.640Z,63.05
2022-10-19T07:55:55.305Z,62.96
2022-10-19T07:58:23.006Z,62.83
2022-10-19T08:00:50.719Z,63.03
2022-10-19T08:03:57.596Z,63.03
2022-10-19T08:06:08.060Z,62.71
2022-10-19T08:08:37.824Z,63.07
2022-10-19T08:11:09.384Z,62.84
2022-10-19T08:13:37.113Z,63.03
2022-10-19T08:16:05.571Z,63.02
2022-10-19T08:18:33.685Z,63.15
2022-10-19T08:21:03.314Z,63.17
2022-10-19T08:23:31.049Z,63.55
2022-10-19T08:26:00.179Z,63.34
2022-10-19T08:28:27.915Z,63.49
2022-10-19T08:30:58.868Z,63.78
2022-10-19T08:33:27.044Z,64.03
2022-10-19T08:35:54.914Z,64.03
2022-10-19T08:38:22.559Z,63.89
2022-10-19T08:40:50.302Z,63.68
2022-10-19T08:43:28.977Z,63.56
2022-10-19T08:46:03.869Z,64.30
2022-10-19T08:48:36.603Z,63.84
2022-10-19T08:51:08.052Z,64.19
2022-10-19T08:53:41.919Z,63.85
2022-10-19T08:56:45.680Z,63.84
2022-10-19T08:59:16.086Z,64.00
2022-10-19T09:01:52.651Z,64.37
2022-10-19T09:04:24.844Z,64.17
2022-10-19T09:07:22.653Z,64.56
2022-10-19T09:09:52.084Z,64.74
2022-10-19T09:12:32.840Z,64.64
2022-10-19T09:15:04.884Z,64.44
2022-10-19T09:17:33.703Z,64.17
2022-10-19T09:20:15.792Z,64.29
2022-10-19T09:22:44.680Z,65.15
2022-10-19T09:25:16.090Z,64.20
2022-10-19T09:27:46.908Z,64.67
2022-10-19T09:30:21.025Z,64.56
2022-10-19T09:32:51.082Z,64.73
2022-10-19T09:35:27.256Z,64.79
2022-10-19T09:37:56.799Z,64.95
2022-10-19T09:40:27.478Z,64.71
2022-10-19T09:42:58.529Z,65.17
2022-10-19T09:45:41.750Z,65.30
2022-10-19T09:48:19.246Z,65.27
2022-10-19T09:50:52.775Z,64.81
2022-10-19T09:53:22.322Z,64.81
2022-10-19T09:55:58.310Z,65.39
2022-10-19T09:58:30.574Z,65.29
2022-10-19T10:01:03.627Z,64.89
2022-10-19T10:03:35.163Z,65.10
2022-10-19T10:06:06.711Z,64.86
2022-10-19T10:08:37.630Z,65.26
2022-10-19T10:11:08.993Z,65.36
2022-10-19T10:13:39.755Z,65.21
2022-10-19T10:16:11.974Z,65.02
2022-10-19T10:18:51.923Z,64.79
2022-10-19T10:21:25.675Z,64.76
2022-10-19T10:24:03.131Z,65.22
2022-10-19T10:26:30.721Z,64.98
2022-10-19T10:29:01.370Z,65.05
2022-10-19T10:31:31.667Z,64.93
2022-10-19T10:34:11.011Z,64.92
2022-10-19T10:36:54.761Z,65.23
2022-10-19T10:39:24.774Z,64.86
2022-10-19T10:41:52.621Z,64.91
2022-10-19T10:44:24.389Z,65.22
2022-10-19T10:46:56.820Z,65.09
2022-10-19T10:49:26.550Z,65.24
2022-10-19T10:51:57.012Z,65.14
2022-10-19T10:54:26.689Z,65.01
2022-10-19T10:57:13.804Z,65.38
2022-10-19T10:59:51.194Z,65.09
2022-10-19T11:02:38.306Z,64.82
2022-10-19T11:05:12.645Z,65.02
2022-10-19T11:07:44.944Z,64.86
2022-10-19T11:10:22.047Z,64.83
2022-10-19T11:12:56.178Z,64.49
2022-10-19T11:18:12.660Z,64.60
2022-10-19T11:20:46.985Z,64.47
2022-10-19T11:23:19.723Z,64.58
2022-10-19T11:26:09.338Z,64.90
2022-10-19T11:28:53.682Z,64.70
2022-10-19T11:31:26.431Z,64.89
2022-10-19T11:34:03.330Z,64.45
2022-10-19T11:36:43.363Z,64.88
2022-10-19T11:39:28.836Z,64.34
2022-10-19T11:42:07.339Z,64.45
2022-10-19T11:44:47.865Z,64.13
2022-10-19T11:47:30.993Z,64.10
2022-10-19T11:50:11.385Z,64.33
2022-10-19T11:52:48.586Z,64.18
2022-10-19T11:55:29.334Z,64.37
2022-10-19T11:58:05.264Z,64.04
2022-10-19T12:00:41.125Z,64.35
2022-10-19T12:03:37.676Z,64.10
2022-10-19T12:06:15.056Z,64.02
2022-10-19T12:08:56.592Z,64.09
2022-10-19T12:11:34.687Z,64.30
2022-10-19T12:14:06.175Z,63.42
2022-10-19T12:16:38.985Z,63.97
2022-10-19T12:19:13.904Z,63.25
2022-10-19T12:21:44.179Z,64.06
2022-10-19T12:24:15.712Z,63.47
2022-10-19T12:26:45.426Z,63.41
2022-10-19T12:29:16.596Z,63.16
2022-10-19T12:31:45.532Z,62.50
2022-10-19T12:34:26.564Z,62.56
2022-10-19T12:37:01.487Z,62.59
2022-10-19T12:39:36.219Z,62.76
2022-10-19T12:42:12.983Z,63.01
2022-10-19T12:44:58.592Z,62.95
2022-10-19T12:47:27.350Z,62.75
2022-10-19T12:49:56.108Z,62.86
2022-10-19T12:52:41.909Z,63.03
2022-10-19T12:55:29.720Z,63.25
2022-10-19T12:58:00.837Z,63.14
2022-10-19T13:00:31.577Z,63.79
2022-10-19T13:03:03.007Z,63.05
2022-10-19T13:05:33.023Z,63.33
2022-10-19T13:08:06.107Z,63.35
2022-10-19T13:10:36.132Z,63.36
2022-10-19T13:13:04.101Z,63.53
2022-10-19T13:15:56.026Z,63.49
2022-10-19T13:19:07.018Z,63.27
2022-10-19T13:22:01.466Z,63.21
2022-10-19T13:24:34.100Z,63.57
2022-10-19T13:27:39.501Z,63.23
2022-10-19T13:30:46.914Z,62.88
2022-10-19T13:33:51.855Z,62.37
2022-10-19T13:36:21.472Z,62.71
2022-10-19T13:39:05.947Z,63.16
2022-10-19T13:41:51.423Z,62.63
2022-10-19T13:44:29.044Z,62.67
2022-10-19T13:47:29.425Z,62.91
2022-10-19T13:50:35.311Z,62.78
2022-10-19T13:53:25.692Z,63.10
2022-10-19T13:56:03.012Z,62.84
2022-10-19T13:59:03.043Z,63.35
2022-10-19T14:01:45.411Z,62.93
2022-10-19T14:04:22.640Z,62.87
2022-10-19T14:06:54.826Z,62.85
2022-10-19T14:09:47.045Z,62.56
2022-10-19T14:12:22.318Z,63.06
2022-10-19T14:14:53.410Z,62.99
2022-10-19T14:17:25.486Z,62.88
2022-10-19T14:19:55.322Z,63.07
2022-10-19T14:22:27.149Z,63.62
2022-10-19T14:25:02.353Z,63.52
2022-10-19T14:27:31.785Z,63.18
2022-10-19T14:29:59.748Z,62.56
2022-10-19T14:32:30.416Z,62.67
2022-10-19T14:37:36.652Z,62.31
2022-10-19T14:40:07.960Z,62.00
2022-10-19T14:42:44.080Z,62.60
2022-10-19T14:45:16.710Z,62.31
2022-10-19T14:48:01.120Z,62.14
2022-10-19T14:50:47.999Z,62.31
2022-10-19T14:53:33.684Z,62.70
2022-10-19T14:56:05.057Z,62.76
2022-10-19T14:58:39.491Z,62.60
2022-10-19T15:01:08.003Z,62.81
2022-10-19T15:03:40.236Z,63.08
2022-10-19T15:06:19.216Z,63.12
2022-10-19T15:08:50.436Z,62.71
2022-10-19T15:11:25.830Z,63.22
2022-10-19T15:14:00.088Z,62.89
2022-10-19T15:16:42.568Z,63.15
2022-10-19T15:19:20.166Z,62.89
2022-10-19T15:21:47.984Z,62.78
2022-10-19T15:24:27.191Z,62.45
2022-10-19T15:27:08.636Z,62.75
2022-10-19T15:29:36.968Z,62.62
2022-10-19T15:32:15.908Z,63.08
2022-10-19T15:34:46.634Z,63.41
2022-10-19T15:37:21.039Z,62.61
2022-10-19T15:39:49.208Z,63.12
2022-10-19T15:42:36.812Z,63.16
2022-10-19T15:45:05.693Z,63.01
2022-10-19T15:47:34.373Z,62.90
2022-10-19T15:50:04.226Z,62.72
2022-10-19T15:52:34.689Z,63.02
2022-10-19T15:55:02.774Z,62.67
2022-10-19T15:57:33.393Z,63.05
2022-10-19T16:00:03.154Z,63.11
2022-10-19T16:02:30.834Z,63.06
2022-10-19T16:04:58.634Z,63.11
2022-10-19T16:07:30.189Z,63.07
2022-10-19T16:09:59.012Z,62.83
2022-10-19T16:12:27.707Z,62.83
2022-10-19T16:14:55.846Z,62.88
2022-10-19T16:17:23.813Z,62.53
2022-10-19T16:19:51.556Z,62.83
2022-10-19T16:22:19.326Z,62.61
2022-10-19T16:24:48.402Z,62.68
2022-10-19T16:27:16.440Z,63.00
2022-10-19T16:29:44.738Z,62.87
2022-10-19T16:32:12.868Z,62.60
2022-10-19T16:34:41.293Z,62.43
2022-10-19T16:37:09.008Z,62.57
2022-10-19T16:39:36.653Z,62.39
2022-10-19T16:42:05.868Z,62.51
2022-10-19T16:44:33.573Z,62.52
2022-10-19T16:47:01.347Z,62.66
2022-10-19T16:49:29.119Z,62.84
2022-10-19T16:51:57.714Z,62.25
2022-10-19T16:54:26.920Z,62.52
2022-10-19T16:56:55.638Z,62.45
2022-10-19T16:59:24.789Z,62.41
2022-10-19T17:01:53.858Z,62.46
2022-10-19T17:04:22.071Z,62.41
2022-10-19T17:06:49.884Z,62.23
2022-10-19T17:12:05.718Z,62.38
2022-10-19T17:14:37.682Z,62.53
2022-10-19T17:17:05.372Z,62.60
2022-10-19T17:19:33.580Z,62.52
2022-10-19T17:22:02.849Z,62.61
2022-10-19T17:24:30.769Z,62.16
2022-10-19T17:26:59.626Z,62.46
2022-10-19T17:29:27.330Z,62.44
2022-10-19T17:31:56.384Z,62.35
2022-10-19T17:34:24.078Z,62.06
2022-10-19T17:36:51.855Z,62.33
2022-10-19T17:39:25.652Z,62.36
2022-10-19T17:42:01.433Z,62.38
2022-10-19T17:44:30.602Z,62.25
2022-10-19T17:47:00.807Z,62.25
2022-10-19T17:49:29.716Z,62.37
2022-10-19T17:51:57.409Z,62.25
2022-10-19T17:54:25.142Z,62.41
2022-10-19T17:56:52.861Z,62.06
2022-10-19T17:59:30.364Z,62.14
2022-10-19T18:02:04.334Z,61.46
2022-10-19T18:04:32.114Z,61.94
2022-10-19T18:07:00.017Z,61.93
2022-10-19T18:09:27.815Z,61.71
2022-10-19T18:11:55.504Z,61.75
2022-10-19T18:14:23.183Z,62.31
2022-10-19T18:16:52.045Z,62.20
2022-10-19T18:19:21.231Z,61.70
2022-10-19T18:21:49.351Z,61.79
2022-10-19T18:24:20.397Z,62.00
2022-10-19T18:26:49.134Z,61.94
2022-10-19T18:29:18.947Z,61.63
2022-10-19T18:31:51.306Z,61.76
2022-10-19T18:34:22.933Z,61.62
2022-10-19T18:36:50.646Z,61.71
2022-10-19T18:39:18.758Z,61.86
2022-10-19T18:41:46.473Z,62.03
2022-10-19T18:44:14.925Z,62.04
2022-10-19T18:46:42.675Z,61.78
2022-10-19T18:49:12.502Z,61.72
2022-10-19T18:51:41.575Z,62.07
2022-10-19T18:54:09.392Z,61.64
2022-10-19T18:56:37.417Z,62.16
2022-10-19T18:59:05.558Z,61.87
2022-10-19T19:01:33.535Z,61.99
2022-10-19T19:04:08.456Z,61.84
2022-10-19T19:06:37.367Z,61.69
2022-10-19T19:09:08.730Z,62.01
2022-10-19T19:11:38.322Z,61.89
2022-10-19T19:14:08.632Z,62.07
2022-10-19T19:16:38.223Z,61.82
2022-10-19T19:19:06.950Z,62.16
2022-10-19T19:21:36.440Z,62.01
2022-10-19T19:24:08.144Z,61.98
2022-10-19T19:26:39.436Z,62.30
2022-10-19T19:29:07.159Z,62.26
2022-10-19T19:31:35.218Z,61.90
2022-10-19T19:34:05.750Z,61.97
2022-10-19T19:36:33.729Z,62.02
2022-10-19T19:39:01.464Z,61.96
2022-10-19T19:41:31.200Z,62.04
2022-10-19T19:43:59.001Z,61.95
2022-10-19T19:46:27.307Z,62.15
2022-10-19T19:49:00.880Z,61.76
2022-10-19T19:51:29.576Z,61.85
2022-10-19T19:53:57.663Z,61.97
2022-10-19T19:56:25.585Z,61.99
2022-10-19T19:58:57.645Z,62.43
2022-10-19T20:01:26.041Z,62.04
2022-10-19T20:03:53.805Z,62.31
2022-10-19T20:06:25.067Z,62.11
2022-10-19T20:08:54.249Z,62.07
2022-10-19T20:11:22.001Z,61.86
2022-10-19T20:13:50.027Z,62.28
2022-10-19T20:16:23.801Z,62.10
2022-10-19T20:18:56.888Z,62.15
2022-10-19T20:21:25.634Z,62.10
2022-10-19T20:23:53.282Z,62.45
2022-10-19T20:26:22.601Z,62.45
2022-10-19T20:28:50.924Z,62.51
2022-10-19T20:31:20.688Z,62.32
2022-10-19T20:33:48.933Z,62.12
2022-10-19T20:36:18.559Z,62.55
2022-10-19T20:38:48.496Z,62.53
2022-10-19T20:41:16.210Z,62.76
2022-10-19T20:43:43.883Z,62.55
2022-10-19T20:46:13.194Z,62.65
2022-10-19T20:48:42.510Z,62.58
2022-10-19T20:51:11.858Z,62.37
2022-10-19T20:53:39.803Z,62.35
2022-10-19T20:56:09.394Z,62.62
2022-10-19T20:58:38.731Z,62.77
2022-10-19T21:01:08.579Z,62.44
2022-10-19T21:03:36.821Z,62.20
2022-10-19T21:06:07.102Z,62.22
2022-10-19T21:08:35.373Z,62.37
2022-10-19T21:11:11.666Z,62.37
2022-10-19T21:13:39.402Z,62.66
2022-10-19T21:16:11.060Z,62.42
2022-10-19T21:18:39.089Z,62.73
2022-10-19T21:21:19.108Z,62.17
2022-10-19T21:23:50.916Z,62.53
2022-10-19T21:26:18.891Z,62.58
2022-10-19T21:28:48.242Z,62.50
2022-10-19T21:31:17.876Z,62.41
2022-10-19T21:33:46.056Z,62.43
2022-10-19T21:36:15.224Z,62.52
2022-10-19T21:38:44.622Z,62.46
2022-10-19T21:41:14.525Z,62.24
2022-10-19T21:43:42.574Z,62.52
2022-10-19T21:46:13.550Z,62.21
2022-10-19T21:48:41.875Z,62.61
2022-10-19T21:51:21.805Z,62.31
2022-10-19T21:53:51.557Z,62.68
2022-10-19T21:56:19.207Z,62.67
2022-10-19T21:58:47.374Z,62.57
2022-10-19T22:01:15.852Z,62.43
2022-10-19T22:03:43.795Z,62.72
2022-10-19T22:06:12.657Z,62.63
2022-10-19T22:08:41.047Z,62.58
2022-10-19T22:11:12.463Z,62.71
2022-10-19T22:13:40.443Z,62.28
2022-10-19T22:16:10.356Z,62.42
2022-10-19T22:18:38.330Z,62.81
2022-10-19T22:21:08.448Z,62.54
2022-10-19T22:23:36.360Z,62.88
2022-10-19T22:26:14.463Z,62.46
2022-10-19T22:28:42.488Z,62.71
2022-10-19T22:31:10.561Z,62.48
2022-10-19T22:33:38.299Z,62.43
2022-10-19T22:36:07.924Z,62.60
2022-10-19T22:38:35.916Z,62.26
2022-10-19T22:41:58.698Z,62.35
2022-10-19T22:44:27.749Z,62.37
2022-10-19T22:46:55.511Z,62.47
2022-10-19T22:49:23.367Z,62.68
2022-10-19T22:51:51.099Z,62.62
2022-10-19T22:54:18.750Z,62.64
2022-10-19T22:56:46.450Z,62.51
2022-10-19T22:59:14.162Z,62.92
2022-10-19T23:01:43.246Z,62.60
2022-10-19T23:04:11.033Z,62.91
2022-10-19T23:06:38.726Z,62.58
2022-10-19T23:09:06.503Z,62.72
2022-10-19T23:11:34.231Z,62.95
2022-10-19T23:14:01.980Z,62.74
2022-10-19T23:16:29.648Z,63.06
2022-10-19T23:18:58.705Z,62.97
2022-10-19T23:21:26.370Z,62.95
2022-10-19T23:23:54.693Z,62.72
2022-10-19T23:26:24.712Z,62.89
2022-10-19T23:28:52.459Z,63.20
2022-10-19T23:31:23.603Z,63.25
2022-10-19T23:33:52.238Z,63.04
2022-10-19T23:36:23.517Z,63.44
2022-10-19T23:38:52.454Z,63.10
2022-10-19T23:41:20.751Z,63.49
2022-10-19T23:43:49.129Z,63.05
2022-10-19T23:46:16.986Z,62.97
2022-10-19T23:48:44.650Z,63.30
2022-10-19T23:51:16.314Z,63.28
2022-10-19T23:53:47.401Z,63.13
2022-10-19T23:56:17.186Z,63.51
2022-10-19T23:58:45.081Z,63.52
